createdAt,value
2023-03-23T00:02:29.371Z,3.83
2023-03-23T00:05:38.397Z,4.88
2023-03-23T00:08:47.778Z,5.88
2023-03-23T00:12:07.016Z,5.35
2023-03-23T00:15:14.525Z,3.05
2023-03-23T00:18:23.183Z,3.97
2023-03-23T00:21:37.405Z,4.78
2023-03-23T00:24:43.072Z,3.58
2023-03-23T00:27:48.522Z,3.53
2023-03-23T00:30:58.074Z,3.03
2023-03-23T00:34:05.293Z,6.38
2023-03-23T00:37:14.123Z,3.28
2023-03-23T00:40:20.237Z,3.22
2023-03-23T00:43:26.705Z,3.35
2023-03-23T00:46:32.716Z,2.95
2023-03-23T00:49:38.822Z,3.90
2023-03-23T00:52:47.017Z,3.17
2023-03-23T00:55:53.391Z,3.90
2023-03-23T00:58:59.330Z,3.75
2023-03-23T01:02:04.918Z,3.33
2023-03-23T01:05:11.004Z,4.53
2023-03-23T01:08:20.185Z,3.13
2023-03-23T01:11:25.652Z,3.10
2023-03-23T01:14:31.507Z,3.58
2023-03-23T01:17:37.270Z,3.67
2023-03-23T01:20:43.924Z,3.47
2023-03-23T01:23:52.706Z,4.05
2023-03-23T01:26:58.466Z,4.25
2023-03-23T01:30:04.115Z,4.75
2023-03-23T01:33:09.636Z,3.50
2023-03-23T01:36:16.533Z,5.38
2023-03-23T01:39:25.335Z,4.90
2023-03-23T01:42:34.915Z,3.35
2023-03-23T01:45:41.961Z,4.22
2023-03-23T01:48:47.866Z,4.03
2023-03-23T01:51:57.243Z,5.88
2023-03-23T01:55:06.291Z,4.13
2023-03-23T01:58:12.358Z,4.95
2023-03-23T02:01:18.927Z,5.40
2023-03-23T02:04:24.892Z,4.68
2023-03-23T02:07:30.689Z,5.80
2023-03-23T02:10:40.746Z,5.25
2023-03-23T02:13:47.493Z,6.30
2023-03-23T02:16:58.715Z,4.70
2023-03-23T02:20:15.209Z,5.03
2023-03-23T02:23:40.923Z,4.88
2023-03-23T02:26:59.597Z,7.00
2023-03-23T02:30:14.368Z,3.75
2023-03-23T02:33:44.070Z,6.05
2023-03-23T02:36:59.586Z,4.80
2023-03-23T02:40:10.067Z,4.20
2023-03-23T02:43:17.388Z,5.68
2023-03-23T02:46:24.915Z,6.13
2023-03-23T02:49:33.201Z,6.33
2023-03-23T02:52:43.853Z,5.00
2023-03-23T02:55:49.887Z,6.53
2023-03-23T02:58:59.129Z,7.07
2023-03-23T03:02:09.851Z,5.72
2023-03-23T03:05:20.012Z,6.38
2023-03-23T03:08:31.969Z,5.40
2023-03-23T03:11:38.616Z,7.05
2023-03-23T03:14:48.402Z,5.82
2023-03-23T03:17:57.521Z,4.30
2023-03-23T03:21:04.466Z,8.05
2023-03-23T03:24:15.432Z,5.43
2023-03-23T03:27:24.414Z,7.00
2023-03-23T03:30:42.245Z,6.65
2023-03-23T03:33:48.219Z,10.10
2023-03-23T03:36:54.749Z,5.38
2023-03-23T03:40:06.072Z,5.28
2023-03-23T03:43:12.033Z,5.57
2023-03-23T03:46:17.666Z,5.43
2023-03-23T03:49:23.940Z,8.88
2023-03-23T03:52:30.127Z,8.55
2023-03-23T03:55:39.883Z,8.10
2023-03-23T03:58:49.944Z,7.15
2023-03-23T04:02:21.316Z,7.47
2023-03-23T04:05:30.161Z,5.47
2023-03-23T04:08:37.062Z,6.60
2023-03-23T04:11:45.772Z,7.93
2023-03-23T04:15:23.183Z,6.07
2023-03-23T04:18:30.841Z,5.70
2023-03-23T04:21:36.562Z,6.20
2023-03-23T04:24:56.112Z,9.48
2023-03-23T04:28:05.117Z,8.57
2023-03-23T04:31:18.429Z,8.88
2023-03-23T04:34:29.194Z,9.02
2023-03-23T04:37:35.716Z,7.93
2023-03-23T04:40:44.190Z,9.48
2023-03-23T04:44:05.914Z,8.77
2023-03-23T04:47:21.051Z,10.23
2023-03-23T04:50:34.430Z,12.48
2023-03-23T04:53:48.495Z,8.15
2023-03-23T04:56:54.135Z,9.80
2023-03-23T05:00:02.083Z,9.40
2023-03-23T05:03:18.131Z,11.10
2023-03-23T05:06:24.591Z,8.32
2023-03-23T05:09:34.845Z,11.55
2023-03-23T05:12:41.500Z,8.75
2023-03-23T05:15:51.569Z,11.20
2023-03-23T05:18:58.799Z,17.20
2023-03-23T05:22:06.493Z,13.50
2023-03-23T05:25:24.113Z,20.08
2023-03-23T05:28:37.836Z,15.45
2023-03-23T05:31:50.797Z,12.75
2023-03-23T05:34:56.324Z,13.88
2023-03-23T05:38:03.271Z,11.68
2023-03-23T05:41:08.931Z,16.67
2023-03-23T05:44:19.066Z,13.05
2023-03-23T05:50:39.412Z,15.27
2023-03-23T05:53:44.936Z,14.82
2023-03-23T05:56:54.019Z,10.98
2023-03-23T06:00:21.219Z,14.20
2023-03-23T06:03:31.783Z,14.02
2023-03-23T06:06:46.820Z,14.85
2023-03-23T06:09:53.469Z,14.73
2023-03-23T06:13:03.114Z,17.23
2023-03-23T06:16:17.511Z,28.83
2023-03-23T06:19:29.515Z,17.90
2023-03-23T06:22:48.854Z,14.65
2023-03-23T06:26:07.312Z,13.00
2023-03-23T06:29:14.935Z,15.70
2023-03-23T06:32:28.083Z,12.75
2023-03-23T06:35:33.435Z,15.07
2023-03-23T06:38:58.061Z,14.13
2023-03-23T06:42:13.595Z,14.38
2023-03-23T06:45:25.055Z,19.00
2023-03-23T06:48:41.186Z,19.27
2023-03-23T06:54:57.167Z,14.23
2023-03-23T06:58:03.278Z,11.82
2023-03-23T07:01:09.537Z,15.52
2023-03-23T07:04:20.643Z,16.27
2023-03-23T07:07:35.012Z,15.80
2023-03-23T07:11:03.357Z,12.20
2023-03-23T07:14:09.283Z,15.27
2023-03-23T07:17:15.110Z,15.05
2023-03-23T07:20:34.114Z,15.38
2023-03-23T07:23:40.071Z,17.58
2023-03-23T07:26:52.297Z,15.40
2023-03-23T07:29:59.416Z,14.05
2023-03-23T07:33:08.329Z,13.45
2023-03-23T07:36:14.792Z,17.08
2023-03-23T07:39:20.339Z,15.48
2023-03-23T07:42:29.423Z,14.23
2023-03-23T07:45:38.416Z,13.05
2023-03-23T07:48:45.172Z,13.75
2023-03-23T07:51:51.033Z,14.68
2023-03-23T07:54:56.557Z,18.48
2023-03-23T07:58:20.321Z,13.27
2023-03-23T08:01:31.227Z,16.00
2023-03-23T08:04:58.224Z,10.20
2023-03-23T08:08:29.732Z,15.15
2023-03-23T08:11:53.591Z,13.68
2023-03-23T08:15:30.720Z,10.15
2023-03-23T08:18:47.686Z,11.38
2023-03-23T08:22:06.656Z,15.15
2023-03-23T08:25:20.722Z,12.95
2023-03-23T08:28:41.885Z,14.80
2023-03-23T08:32:04.090Z,12.90
2023-03-23T08:35:28.858Z,11.13
2023-03-23T08:38:55.705Z,12.38
2023-03-23T08:42:20.075Z,11.55
2023-03-23T08:45:49.248Z,15.00
2023-03-23T08:48:57.599Z,12.10
2023-03-23T08:52:21.547Z,11.57
2023-03-23T08:55:47.148Z,9.02
2023-03-23T08:59:13.162Z,20.58
2023-03-23T09:02:54.537Z,12.48
2023-03-23T09:06:06.427Z,11.35
2023-03-23T09:09:27.396Z,13.15
2023-03-23T09:12:32.783Z,12.75
2023-03-23T09:15:46.389Z,13.50
2023-03-23T09:18:59.494Z,13.75
2023-03-23T09:22:07.915Z,10.77
2023-03-23T09:28:19.343Z,11.15
2023-03-23T09:31:27.733Z,12.43
2023-03-23T09:37:45.948Z,9.98
2023-03-23T09:40:52.354Z,9.73
2023-03-23T09:44:05.492Z,12.35
2023-03-23T09:47:13.310Z,8.30
2023-03-23T09:50:19.940Z,10.93
2023-03-23T09:53:29.377Z,11.70
2023-03-23T09:56:37.130Z,8.90
2023-03-23T09:59:45.113Z,9.80
2023-03-23T10:02:53.602Z,9.77
2023-03-23T10:06:00.367Z,10.95
2023-03-23T10:09:09.559Z,9.25
2023-03-23T10:12:19.583Z,9.93
2023-03-23T10:15:28.061Z,9.57
2023-03-23T10:21:40.296Z,9.57
2023-03-23T10:24:54.051Z,7.40
2023-03-23T10:28:04.676Z,7.57
2023-03-23T10:31:14.211Z,7.13
2023-03-23T10:34:21.670Z,8.13
2023-03-23T10:37:28.124Z,7.55
2023-03-23T10:40:36.965Z,11.07
2023-03-23T10:43:42.586Z,4.80
2023-03-23T10:46:51.760Z,8.25
2023-03-23T10:49:58.971Z,7.43
2023-03-23T10:53:06.508Z,4.97
2023-03-23T10:56:26.106Z,11.00
2023-03-23T10:59:33.943Z,8.30
2023-03-23T11:02:43.901Z,6.70
2023-03-23T11:05:52.957Z,5.63
2023-03-23T11:09:00.919Z,6.53
2023-03-23T11:12:08.914Z,10.17
2023-03-23T11:15:25.010Z,7.32
2023-03-23T11:18:31.693Z,4.95
2023-03-23T11:21:37.348Z,7.63
2023-03-23T11:24:45.534Z,6.60
2023-03-23T11:27:55.060Z,6.82
2023-03-23T11:31:01.984Z,8.15
2023-03-23T11:34:08.188Z,5.65
2023-03-23T11:37:17.400Z,7.85
2023-03-23T11:40:23.695Z,9.90
2023-03-23T11:43:31.965Z,5.72
2023-03-23T11:46:38.941Z,4.85
2023-03-23T11:49:48.734Z,10.88
2023-03-23T11:52:58.110Z,7.15
2023-03-23T11:56:10.965Z,5.55
2023-03-23T11:59:19.831Z,7.07
2023-03-23T12:02:40.723Z,5.15
2023-03-23T12:05:49.636Z,6.70
2023-03-23T12:09:04.624Z,5.78
2023-03-23T12:12:15.511Z,6.50
2023-03-23T12:15:26.892Z,6.60
2023-03-23T12:18:36.719Z,5.18
2023-03-23T12:21:47.209Z,5.55
2023-03-23T12:24:56.747Z,6.13
2023-03-23T12:28:05.794Z,7.43
2023-03-23T12:31:16.654Z,6.22
2023-03-23T12:34:28.868Z,4.90
2023-03-23T12:37:43.126Z,6.20
2023-03-23T12:41:03.844Z,5.72
2023-03-23T12:44:11.818Z,9.55
2023-03-23T12:47:33.985Z,5.20
2023-03-23T12:50:42.183Z,4.93
2023-03-23T12:53:50.799Z,6.47
2023-03-23T12:56:58.420Z,7.65
2023-03-23T13:00:13.262Z,4.30
2023-03-23T13:03:24.100Z,6.72
2023-03-23T13:06:32.943Z,8.15
2023-03-23T13:09:42.575Z,6.18
2023-03-23T13:12:47.866Z,6.53
2023-03-23T13:15:59.370Z,6.03
2023-03-23T13:19:12.458Z,7.63
2023-03-23T13:22:20.786Z,5.45
2023-03-23T13:25:33.551Z,6.10
2023-03-23T13:28:50.590Z,9.10
2023-03-23T13:31:56.216Z,7.45
2023-03-23T13:35:05.342Z,9.93
2023-03-23T13:38:17.717Z,6.00
2023-03-23T13:41:24.749Z,9.02
2023-03-23T13:44:31.037Z,8.35
2023-03-23T13:47:40.170Z,9.75
2023-03-23T13:50:54.307Z,8.43
2023-03-23T13:54:10.039Z,10.45
2023-03-23T13:57:27.926Z,7.72
2023-03-23T14:00:50.978Z,8.68
2023-03-23T14:04:01.339Z,5.85
2023-03-23T14:07:16.511Z,8.13
2023-03-23T14:10:22.495Z,7.40
2023-03-23T14:13:28.848Z,10.30
2023-03-23T14:16:41.230Z,11.63
2023-03-23T14:19:48.750Z,9.63
2023-03-23T14:26:08.757Z,11.60
2023-03-23T14:29:14.660Z,6.32
2023-03-23T14:32:21.133Z,9.88
2023-03-23T14:35:29.190Z,9.43
2023-03-23T14:38:35.684Z,12.07
2023-03-23T14:41:44.687Z,8.82
2023-03-23T14:44:52.366Z,8.55
2023-03-23T14:47:59.370Z,7.85
2023-03-23T14:51:06.297Z,11.05
2023-03-23T14:54:12.094Z,10.13
2023-03-23T14:57:21.135Z,9.88
2023-03-23T15:00:27.941Z,7.15
2023-03-23T15:03:35.913Z,10.30
2023-03-23T15:06:42.940Z,7.05
2023-03-23T15:09:49.357Z,6.57
2023-03-23T15:12:59.449Z,6.75
2023-03-23T15:16:15.785Z,14.73
2023-03-23T15:19:23.110Z,18.27
2023-03-23T15:22:30.169Z,10.20
2023-03-23T15:25:40.634Z,8.23
2023-03-23T15:28:49.583Z,7.22
2023-03-23T15:31:59.398Z,7.40
2023-03-23T15:35:12.445Z,13.30
2023-03-23T15:38:22.142Z,10.63
2023-03-23T15:41:28.175Z,7.57
2023-03-23T15:44:37.118Z,10.52
2023-03-23T15:47:48.490Z,8.45
2023-03-23T15:50:54.329Z,8.95
2023-03-23T15:54:02.944Z,6.40
2023-03-23T15:57:14.326Z,6.32
2023-03-23T16:00:24.214Z,6.72
2023-03-23T16:03:30.441Z,7.85
2023-03-23T16:06:36.938Z,6.50
2023-03-23T16:09:42.983Z,10.30
2023-03-23T16:12:48.429Z,8.77
2023-03-23T16:15:57.032Z,8.65
2023-03-23T16:19:02.452Z,7.90
2023-03-23T16:22:07.750Z,9.40
2023-03-23T16:25:13.451Z,6.88
2023-03-23T16:28:20.906Z,6.85
2023-03-23T16:31:29.340Z,12.00
2023-03-23T16:34:35.991Z,7.95
2023-03-23T16:37:41.431Z,12.57
2023-03-23T16:40:47.351Z,7.05
2023-03-23T16:43:52.590Z,8.50
2023-03-23T16:47:00.731Z,8.70
2023-03-23T16:50:07.250Z,8.77
2023-03-23T16:53:13.181Z,9.88
2023-03-23T16:56:18.642Z,9.27
2023-03-23T16:59:23.831Z,8.27
2023-03-23T17:02:32.754Z,9.75
2023-03-23T17:05:38.688Z,10.45
2023-03-23T17:08:44.428Z,9.88
2023-03-23T17:11:49.824Z,8.38
2023-03-23T17:14:55.196Z,9.10
2023-03-23T17:18:03.405Z,9.77
2023-03-23T17:21:09.412Z,7.75
2023-03-23T17:24:14.517Z,8.30
2023-03-23T17:27:21.280Z,8.02
2023-03-23T17:30:26.968Z,9.48
2023-03-23T17:33:35.255Z,8.85
2023-03-23T17:36:40.568Z,8.15
2023-03-23T17:39:47.606Z,11.48
2023-03-23T17:42:53.655Z,10.00
2023-03-23T17:45:58.902Z,11.50
2023-03-23T17:49:07.427Z,14.43
2023-03-23T17:52:12.975Z,13.13
2023-03-23T17:55:21.532Z,11.85
2023-03-23T17:58:27.358Z,10.80
2023-03-23T18:01:33.154Z,14.90
2023-03-23T18:04:42.798Z,13.43
2023-03-23T18:07:48.378Z,13.20
2023-03-23T18:10:53.729Z,11.20
2023-03-23T18:13:59.109Z,9.82
2023-03-23T18:17:04.459Z,14.88
2023-03-23T18:20:12.771Z,11.30
2023-03-23T18:23:18.029Z,11.85
2023-03-23T18:26:24.279Z,12.88
2023-03-23T18:29:29.686Z,15.43
2023-03-23T18:32:35.255Z,13.85
2023-03-23T18:35:43.539Z,20.10
2023-03-23T18:41:54.292Z,13.80
2023-03-23T18:45:00.249Z,15.65
2023-03-23T18:48:05.835Z,12.20
2023-03-23T18:51:13.865Z,12.77
2023-03-23T18:54:19.748Z,11.45
2023-03-23T18:57:25.065Z,17.70
2023-03-23T19:00:30.856Z,14.70
2023-03-23T19:03:36.508Z,14.35
2023-03-23T19:06:44.729Z,16.58
2023-03-23T19:09:50.083Z,15.05
2023-03-23T19:12:55.964Z,16.52
2023-03-23T19:16:01.461Z,14.40
2023-03-23T19:19:08.560Z,14.32
2023-03-23T19:22:16.924Z,12.52
2023-03-23T19:25:22.820Z,12.35
2023-03-23T19:31:37.003Z,14.75
2023-03-23T19:34:42.457Z,14.30
2023-03-23T19:37:50.314Z,16.10
2023-03-23T19:40:58.215Z,15.68
2023-03-23T19:44:04.607Z,14.48
2023-03-23T19:47:10.644Z,13.77
2023-03-23T19:50:16.699Z,18.67
2023-03-23T19:53:26.566Z,16.67
2023-03-23T19:56:33.383Z,12.95
2023-03-23T19:59:39.339Z,13.25
2023-03-23T20:02:44.827Z,14.68
2023-03-23T20:05:50.592Z,14.13
2023-03-23T20:09:00.019Z,13.85
2023-03-23T20:12:06.348Z,15.35
2023-03-23T20:15:12.193Z,11.57
2023-03-23T20:18:19.139Z,12.68
2023-03-23T20:21:25.148Z,14.18
2023-03-23T20:24:33.118Z,15.90
2023-03-23T20:27:38.304Z,11.00
2023-03-23T20:30:43.682Z,16.23
2023-03-23T20:33:48.798Z,15.32
2023-03-23T20:37:06.629Z,12.90
2023-03-23T20:40:15.967Z,12.93
2023-03-23T20:43:21.801Z,13.40
2023-03-23T20:46:27.139Z,12.10
2023-03-23T20:49:33.835Z,12.50
2023-03-23T20:52:40.996Z,10.73
2023-03-23T20:55:49.715Z,12.88
2023-03-23T20:58:55.388Z,12.25
2023-03-23T21:02:00.741Z,11.18
2023-03-23T21:05:06.863Z,11.30
2023-03-23T21:08:12.750Z,11.63
2023-03-23T21:11:22.581Z,13.23
2023-03-23T21:14:27.710Z,12.48
2023-03-23T21:17:33.288Z,10.18
2023-03-23T21:20:38.835Z,11.57
2023-03-23T21:23:47.654Z,13.00
2023-03-23T21:26:56.111Z,14.10
2023-03-23T21:33:08.503Z,15.50
2023-03-23T21:36:14.277Z,13.05
2023-03-23T21:39:20.757Z,11.98
2023-03-23T21:42:30.969Z,13.73
2023-03-23T21:45:36.489Z,12.32
2023-03-23T21:48:42.072Z,18.33
2023-03-23T21:51:49.108Z,11.70
2023-03-23T21:54:54.372Z,13.00
2023-03-23T21:58:02.555Z,13.27
2023-03-23T22:01:08.631Z,16.08
2023-03-23T22:04:13.952Z,12.68
2023-03-23T22:07:19.169Z,13.13
2023-03-23T22:10:24.596Z,16.42
2023-03-23T22:13:33.627Z,14.02
2023-03-23T22:16:39.179Z,15.05
2023-03-23T22:19:45.077Z,15.80
2023-03-23T22:22:50.571Z,17.45
2023-03-23T22:25:57.084Z,17.27
2023-03-23T22:29:05.680Z,16.00
2023-03-23T22:32:11.277Z,17.80
2023-03-23T22:35:17.103Z,16.15
2023-03-23T22:38:22.415Z,15.15
2023-03-23T22:41:28.972Z,18.90
2023-03-23T22:44:37.506Z,16.10
2023-03-23T22:47:42.931Z,15.90
2023-03-23T22:50:48.429Z,21.52
2023-03-23T22:53:53.902Z,16.67
2023-03-23T22:56:59.525Z,15.80
2023-03-23T23:00:14.944Z,20.92
2023-03-23T23:03:20.730Z,18.95
2023-03-23T23:06:26.244Z,17.20
2023-03-23T23:09:31.607Z,17.83
2023-03-23T23:12:37.547Z,19.77
2023-03-23T23:15:47.453Z,19.40
2023-03-23T23:18:53.071Z,18.13
2023-03-23T23:22:03.894Z,17.77
2023-03-23T23:25:18.342Z,17.13
2023-03-23T23:28:23.849Z,18.15
2023-03-23T23:31:34.265Z,21.60
2023-03-23T23:34:39.895Z,18.90
2023-03-23T23:37:45.367Z,21.35
2023-03-23T23:40:51.154Z,21.17
2023-03-23T23:43:56.374Z,18.17
2023-03-23T23:47:04.479Z,20.63
2023-03-23T23:50:10.638Z,19.20
2023-03-23T23:53:17.142Z,21.27
2023-03-23T23:56:23.217Z,18.25
2023-03-23T23:59:29.271Z,18.70
